Etusivu
METAR-TAF:

METAR-TAF

Lentoasemat :

Vidsel, Ruotsi

Leveyspiiri: 65-52N, Pituuspiiri: 020-08E, korkeus merenpinnasta: 180 m

Tämänhetkinen sää

Tämä raportti tehtiin 36 minuuttia sitten, kello 22.20 UTC
Tuuli 1 kn eri suunnista
Lämpötila 7°C
Kosteus 76%
Ilmanpaine 1025 hPa
Näkyvyys 10 km tai enemmän

METAR: ESPE 242220Z AUTO VRB01KT 9999 NCD 07/03 Q1025

Aika: 00:56 (22:56 UTC)

Sääennuste

Tämä raportti tehtiin 14 tuntia ja 26 minuuttia sitten, kello 08.30 UTC
Ennuste voimassa 24. päivästä klo 09 UTC - 24. päivään klo 14 UTC
Tuuli 3 kn eri suunnista
Näkyvyys 10 km tai enemmän
ei pilviä alle 1500 m:ssä eikä cumulonimbus-pilviä

TAF: ESPE 240830Z 2409/2414 VRB03KT CAVOK RMK MIL

Säähavainnot ja -ennusteet yli 4000 lentoasemalta (METAR- ja TAF-raportit).

Käytössä olevat sääasemat on merkitty karttaan keltaisilla ja punaisilla pisteillä.

Aseta hiiri pisteen päälle nähdäksesi sääaseman nimen.

Klikkaa sitten nähdäksesi säähavainnot ja -ennusteet.

Kartan vaihtaminen: klikkaa mustalla rastilla varustettuja vihreitä pisteitä, niin voit zoomata sisään; viivalla varustettua vihreää pistettä, niin voit zoomata ulos tai vihreitä nuolia, niin pääset viereisille kartoille.


METAR-TAF: